createdAt,value
2018-06-30T00:00:05.281Z,34.33
2018-06-30T00:02:33.063Z,36.13
2018-06-30T00:05:00.853Z,34.60
2018-06-30T00:07:28.656Z,36.33
2018-06-30T00:09:56.482Z,35.65
2018-06-30T00:12:54.952Z,34.60
2018-06-30T00:15:22.971Z,32.23
2018-06-30T00:17:51.088Z,29.80
2018-06-30T00:20:18.970Z,34.07
2018-06-30T00:22:46.846Z,34.00
2018-06-30T00:25:14.827Z,32.50
2018-06-30T00:27:42.875Z,34.43
2018-06-30T00:30:10.898Z,31.67
2018-06-30T00:32:38.958Z,33.73
2018-06-30T00:35:07.020Z,30.97
2018-06-30T00:37:34.941Z,35.03
2018-06-30T00:40:02.983Z,35.80
2018-06-30T00:42:31.022Z,34.05
2018-06-30T00:44:59.070Z,34.73
2018-06-30T00:47:26.946Z,34.67
2018-06-30T00:49:54.908Z,35.60
2018-06-30T00:52:22.792Z,35.37
2018-06-30T00:54:50.785Z,35.27
2018-06-30T00:57:18.686Z,37.10
2018-06-30T00:59:46.723Z,37.40
2018-06-30T01:02:14.639Z,36.97
2018-06-30T01:04:42.652Z,35.10
2018-06-30T01:07:10.684Z,35.37
2018-06-30T01:09:38.679Z,35.37
2018-06-30T01:12:06.599Z,36.37
2018-06-30T01:14:34.615Z,36.77
2018-06-30T01:17:02.603Z,36.85
2018-06-30T01:19:30.618Z,39.73
2018-06-30T01:21:58.638Z,38.38
2018-06-30T01:24:26.727Z,41.23
2018-06-30T01:26:54.677Z,38.97
2018-06-30T01:29:30.286Z,39.23
2018-06-30T01:31:58.080Z,39.33
2018-06-30T01:34:25.942Z,42.87
2018-06-30T01:36:53.754Z,42.90
2018-06-30T01:39:21.547Z,44.17
2018-06-30T01:41:49.384Z,42.23
2018-06-30T01:44:53.016Z,57.78
2018-06-30T01:47:20.970Z,45.43
2018-06-30T01:49:48.977Z,47.23
2018-06-30T01:52:16.901Z,44.97
2018-06-30T01:54:44.842Z,45.40
2018-06-30T01:57:12.749Z,46.60
2018-06-30T01:59:40.765Z,44.73
2018-06-30T02:02:08.685Z,45.93
2018-06-30T02:04:36.654Z,44.93
2018-06-30T02:07:04.942Z,46.07
2018-06-30T02:09:32.914Z,44.70
2018-06-30T02:12:00.865Z,48.60
2018-06-30T02:14:28.822Z,45.70
2018-06-30T02:16:56.757Z,44.63
2018-06-30T02:19:24.819Z,44.70
2018-06-30T02:21:52.809Z,43.95
2018-06-30T02:24:20.811Z,42.20
2018-06-30T02:26:48.737Z,40.83
2018-06-30T02:29:16.720Z,44.10
2018-06-30T02:31:44.643Z,42.00
2018-06-30T02:34:12.704Z,41.23
2018-06-30T02:36:43.847Z,42.53
2018-06-30T02:39:11.865Z,41.93
2018-06-30T02:41:39.733Z,43.45
2018-06-30T02:44:07.555Z,41.87
2018-06-30T02:46:35.315Z,42.53
2018-06-30T02:49:03.139Z,40.53
2018-06-30T02:51:30.993Z,43.23
2018-06-30T02:53:58.869Z,39.97
2018-06-30T02:56:26.686Z,40.10
2018-06-30T02:58:54.541Z,42.37
2018-06-30T03:01:22.359Z,41.53
2018-06-30T03:03:50.425Z,39.53
2018-06-30T03:06:18.548Z,40.88
2018-06-30T03:08:46.695Z,40.00
2018-06-30T03:11:14.801Z,41.90
2018-06-30T03:13:42.669Z,43.35
2018-06-30T03:16:13.512Z,43.63
2018-06-30T03:18:41.314Z,43.33
2018-06-30T03:21:09.127Z,45.57
2018-06-30T03:23:36.899Z,45.37
2018-06-30T03:26:04.804Z,48.00
2018-06-30T03:28:32.653Z,45.27
2018-06-30T03:31:00.606Z,46.17
2018-06-30T03:33:28.351Z,46.23
2018-06-30T03:35:56.216Z,45.87
2018-06-30T03:38:24.025Z,44.77
2018-06-30T03:40:51.821Z,44.83
2018-06-30T03:43:19.620Z,44.53
2018-06-30T03:45:47.389Z,41.87
2018-06-30T03:48:15.215Z,44.37
2018-06-30T03:50:43.008Z,42.83
2018-06-30T03:53:10.812Z,44.57
2018-06-30T03:55:38.694Z,43.60
2018-06-30T03:58:06.500Z,44.57
2018-06-30T04:00:34.349Z,43.50
2018-06-30T04:03:02.144Z,40.97
2018-06-30T04:05:30.020Z,41.07
2018-06-30T04:07:57.834Z,43.17
2018-06-30T04:10:25.570Z,45.27
2018-06-30T04:12:53.322Z,44.47
2018-06-30T04:15:21.137Z,42.60
2018-06-30T04:17:48.901Z,43.43
2018-06-30T04:20:16.644Z,43.80
2018-06-30T04:22:45.408Z,41.00
2018-06-30T04:25:13.209Z,39.03
2018-06-30T04:27:41.010Z,39.17
2018-06-30T04:30:08.902Z,36.63
2018-06-30T04:32:36.688Z,34.53
2018-06-30T04:35:04.846Z,32.93
2018-06-30T04:37:32.576Z,35.10
2018-06-30T04:40:10.998Z,31.53
2018-06-30T04:45:04.287Z,30.10
2018-06-30T04:47:32.122Z,30.40
2018-06-30T04:49:59.928Z,28.77
2018-06-30T04:52:27.744Z,28.70
2018-06-30T04:54:55.523Z,28.27
2018-06-30T04:57:23.286Z,26.53
2018-06-30T04:59:51.077Z,27.13
2018-06-30T05:02:18.841Z,24.72
2018-06-30T05:04:46.585Z,25.17
2018-06-30T05:07:14.348Z,32.57
2018-06-30T05:09:42.150Z,25.37
2018-06-30T05:12:09.898Z,23.55
2018-06-30T05:14:37.663Z,22.67
2018-06-30T05:17:05.498Z,22.60
2018-06-30T05:19:33.242Z,23.35
2018-06-30T05:22:01.094Z,24.20
2018-06-30T05:24:28.903Z,23.38
2018-06-30T05:26:56.693Z,21.82
2018-06-30T05:29:24.644Z,20.72
2018-06-30T05:31:52.467Z,20.68
2018-06-30T05:34:20.298Z,20.55
2018-06-30T05:36:48.128Z,21.52
2018-06-30T05:39:16.028Z,21.73
2018-06-30T05:41:43.877Z,19.77
2018-06-30T05:44:11.760Z,20.08
2018-06-30T05:46:39.626Z,20.70
2018-06-30T05:49:07.539Z,20.23
2018-06-30T05:51:35.298Z,19.90
2018-06-30T05:54:03.158Z,20.17
2018-06-30T05:56:31.000Z,20.12
2018-06-30T05:58:58.828Z,20.77
2018-06-30T06:01:26.772Z,19.40
2018-06-30T06:03:54.591Z,18.90
2018-06-30T06:06:22.380Z,23.10
2018-06-30T06:08:50.208Z,17.55
2018-06-30T06:11:18.009Z,18.55
2018-06-30T06:14:36.717Z,17.90
2018-06-30T06:17:04.805Z,21.17
2018-06-30T06:19:43.410Z,19.52
2018-06-30T06:22:11.197Z,20.40
2018-06-30T06:24:38.999Z,18.45
2018-06-30T06:27:06.832Z,17.50
2018-06-30T06:29:34.608Z,17.82
2018-06-30T06:32:02.460Z,17.52
2018-06-30T06:34:30.339Z,18.40
2018-06-30T06:36:58.095Z,18.48
2018-06-30T06:39:26.080Z,18.12
2018-06-30T06:41:53.860Z,17.62
2018-06-30T06:44:21.780Z,17.98
2018-06-30T06:46:49.593Z,17.12
2018-06-30T06:49:17.523Z,18.55
2018-06-30T06:51:45.508Z,19.05
2018-06-30T06:54:13.318Z,20.23
2018-06-30T06:56:41.251Z,23.80
2018-06-30T06:59:09.065Z,20.55
2018-06-30T07:01:36.883Z,22.17
2018-06-30T07:04:04.749Z,22.00
2018-06-30T07:06:54.167Z,19.30
2018-06-30T07:09:22.004Z,20.45
2018-06-30T07:11:49.852Z,18.87
2018-06-30T07:14:17.706Z,26.68
2018-06-30T07:16:49.591Z,24.60
2018-06-30T07:19:17.575Z,23.87
2018-06-30T07:21:45.497Z,19.42
2018-06-30T07:24:13.544Z,25.40
2018-06-30T07:26:41.409Z,22.67
2018-06-30T07:29:09.354Z,20.60
2018-06-30T07:32:09.861Z,21.25
2018-06-30T07:34:39.573Z,21.62
2018-06-30T07:37:07.360Z,21.90
2018-06-30T07:39:35.207Z,21.57
2018-06-30T07:42:03.033Z,22.93
2018-06-30T07:44:30.941Z,23.10
2018-06-30T07:46:58.797Z,23.02
2018-06-30T07:50:01.045Z,24.77
2018-06-30T07:52:28.998Z,25.45
2018-06-30T07:54:56.979Z,23.73
2018-06-30T07:57:24.935Z,24.60
2018-06-30T07:59:52.858Z,29.57
2018-06-30T08:02:21.070Z,29.32
2018-06-30T08:04:48.924Z,27.50
2018-06-30T08:07:16.782Z,29.10
2018-06-30T08:09:44.617Z,24.00
2018-06-30T08:12:12.397Z,23.70
2018-06-30T08:14:40.440Z,23.42
2018-06-30T08:17:08.362Z,26.25
2018-06-30T08:19:36.149Z,23.90
2018-06-30T08:22:04.033Z,28.85
2018-06-30T08:24:31.855Z,34.88
2018-06-30T08:26:59.658Z,27.37
2018-06-30T08:29:27.569Z,30.55
2018-06-30T08:31:55.298Z,27.42
2018-06-30T08:34:23.126Z,29.48
2018-06-30T08:36:51.024Z,26.55
2018-06-30T08:39:18.910Z,26.23
2018-06-30T08:41:46.697Z,28.95
2018-06-30T08:44:14.493Z,27.27
2018-06-30T08:46:42.357Z,28.50
2018-06-30T08:49:10.066Z,25.97
2018-06-30T08:51:37.896Z,27.80
2018-06-30T08:54:06.683Z,25.52
2018-06-30T08:56:34.513Z,24.67
2018-06-30T08:59:02.313Z,22.48
2018-06-30T09:01:30.112Z,20.40
2018-06-30T09:03:57.913Z,29.02
2018-06-30T09:07:06.259Z,29.30
2018-06-30T09:09:34.213Z,21.30
2018-06-30T09:12:39.014Z,21.42
2018-06-30T09:15:06.928Z,21.02
2018-06-30T09:17:34.915Z,20.20
2018-06-30T09:20:02.783Z,20.55
2018-06-30T09:22:30.598Z,20.52
2018-06-30T09:24:58.570Z,20.37
2018-06-30T09:27:26.430Z,18.65
2018-06-30T09:29:54.245Z,17.55
2018-06-30T09:32:24.058Z,18.95
2018-06-30T09:34:51.927Z,18.82
2018-06-30T09:37:19.814Z,19.05
2018-06-30T09:39:47.558Z,22.73
2018-06-30T09:42:15.401Z,16.62
2018-06-30T09:44:45.243Z,14.93
2018-06-30T09:47:13.044Z,14.98
2018-06-30T09:49:40.950Z,16.62
2018-06-30T09:52:08.788Z,15.00
2018-06-30T09:54:36.792Z,14.65
2018-06-30T09:57:04.769Z,15.95
2018-06-30T10:00:00.679Z,21.10
2018-06-30T10:02:28.582Z,19.55
2018-06-30T10:04:56.651Z,18.60
2018-06-30T10:07:24.826Z,20.15
2018-06-30T10:09:52.734Z,18.20
2018-06-30T10:12:20.543Z,16.37
2018-06-30T10:14:48.372Z,19.57
2018-06-30T10:17:16.202Z,19.30
2018-06-30T10:19:43.998Z,16.95
2018-06-30T10:22:18.905Z,15.25
2018-06-30T10:24:46.893Z,17.60
2018-06-30T10:27:14.798Z,18.15
2018-06-30T10:29:42.872Z,18.05
2018-06-30T10:32:10.866Z,18.87
2018-06-30T10:34:38.901Z,20.10
2018-06-30T10:37:07.127Z,19.02
2018-06-30T10:39:35.087Z,19.40
2018-06-30T10:42:03.155Z,19.25
2018-06-30T10:47:31.963Z,18.70
2018-06-30T10:49:59.968Z,15.32
2018-06-30T10:52:27.773Z,13.60
2018-06-30T10:54:55.596Z,20.25
2018-06-30T10:57:23.396Z,19.23
2018-06-30T10:59:52.601Z,15.48
2018-06-30T11:02:20.424Z,13.83
2018-06-30T11:04:48.298Z,15.23
2018-06-30T11:07:16.125Z,13.43
2018-06-30T11:09:44.928Z,13.08
2018-06-30T11:12:12.817Z,11.68
2018-06-30T11:14:41.085Z,7.60
2018-06-30T11:17:08.905Z,13.08
2018-06-30T11:19:37.725Z,14.25
2018-06-30T11:22:05.704Z,14.18
2018-06-30T11:24:34.448Z,9.23
2018-06-30T11:27:02.260Z,9.75
2018-06-30T11:29:30.102Z,10.90
2018-06-30T11:31:57.861Z,8.90
2018-06-30T11:34:26.612Z,8.03
2018-06-30T11:43:40.705Z,10.72
2018-06-30T11:46:08.503Z,8.00
2018-06-30T11:48:36.373Z,8.05
2018-06-30T11:51:04.188Z,7.95
2018-06-30T11:53:32.014Z,7.80
2018-06-30T11:55:59.841Z,8.30
2018-06-30T11:58:27.687Z,9.53
2018-06-30T12:00:57.516Z,8.30
2018-06-30T12:03:25.472Z,8.68
2018-06-30T12:05:53.536Z,8.75
2018-06-30T12:08:21.572Z,9.88
2018-06-30T12:10:49.881Z,8.00
2018-06-30T12:13:18.222Z,7.97
2018-06-30T12:15:46.565Z,6.85
2018-06-30T12:18:14.699Z,10.82
2018-06-30T12:20:43.273Z,9.08
2018-06-30T12:23:11.889Z,9.25
2018-06-30T12:25:40.974Z,7.83
2018-06-30T12:28:09.124Z,8.20
2018-06-30T12:30:37.467Z,9.78
2018-06-30T12:33:06.197Z,13.13
2018-06-30T12:35:34.638Z,14.63
2018-06-30T12:38:02.784Z,13.20
2018-06-30T12:40:31.044Z,14.30
2018-06-30T12:43:01.510Z,12.55
2018-06-30T12:45:29.616Z,13.35
2018-06-30T12:47:57.654Z,12.13
2018-06-30T12:50:25.437Z,12.10
2018-06-30T12:52:54.491Z,11.70
2018-06-30T12:55:22.310Z,10.93
2018-06-30T12:57:50.158Z,12.13
2018-06-30T13:00:18.033Z,11.97
2018-06-30T13:02:45.986Z,10.38
2018-06-30T13:05:13.820Z,11.25
2018-06-30T13:07:41.584Z,13.80
2018-06-30T13:10:09.389Z,11.80
2018-06-30T13:12:37.389Z,11.38
2018-06-30T13:15:05.355Z,10.82
2018-06-30T13:18:09.422Z,10.55
2018-06-30T13:20:48.163Z,10.88
2018-06-30T13:23:18.463Z,9.65
2018-06-30T13:25:46.214Z,7.95
2018-06-30T13:28:13.976Z,10.00
2018-06-30T13:30:41.969Z,8.43
2018-06-30T13:33:09.936Z,9.65
2018-06-30T13:35:38.090Z,10.93
2018-06-30T13:38:06.093Z,9.83
2018-06-30T13:40:34.074Z,8.55
2018-06-30T13:43:02.153Z,8.48
2018-06-30T13:49:28.107Z,7.00
2018-06-30T13:52:09.017Z,7.47
2018-06-30T13:54:36.853Z,9.83
2018-06-30T13:57:04.722Z,7.95
2018-06-30T13:59:32.518Z,7.37
2018-06-30T14:02:00.382Z,7.20
2018-06-30T14:04:28.207Z,5.90
2018-06-30T14:06:56.866Z,6.42
2018-06-30T14:11:50.406Z,6.30
2018-06-30T14:16:59.529Z,5.55
2018-06-30T14:19:27.382Z,4.83
2018-06-30T14:21:55.204Z,5.75
2018-06-30T14:24:23.998Z,5.80
2018-06-30T14:26:51.802Z,4.40
2018-06-30T14:29:19.643Z,4.72
2018-06-30T14:31:47.424Z,3.47
2018-06-30T14:34:15.198Z,5.45
2018-06-30T14:36:43.076Z,4.25
2018-06-30T14:39:12.635Z,4.65
2018-06-30T14:41:40.432Z,4.03
2018-06-30T14:44:08.360Z,4.08
2018-06-30T14:46:36.287Z,4.45
2018-06-30T14:49:04.497Z,5.03
2018-06-30T14:51:32.762Z,5.00
2018-06-30T14:54:00.707Z,4.10
2018-06-30T14:56:28.571Z,3.87
2018-06-30T14:58:56.402Z,4.03
2018-06-30T15:01:24.408Z,4.83
2018-06-30T15:03:52.166Z,4.28
2018-06-30T15:06:19.963Z,5.00
2018-06-30T15:09:01.247Z,4.80
2018-06-30T15:11:29.103Z,4.50
2018-06-30T15:14:47.332Z,5.00
2018-06-30T15:17:15.197Z,5.05
2018-06-30T15:19:43.033Z,4.92
2018-06-30T15:22:10.863Z,5.25
2018-06-30T15:24:38.661Z,4.62
2018-06-30T15:27:06.511Z,4.92
2018-06-30T15:29:34.341Z,5.70
2018-06-30T15:32:02.163Z,4.97
2018-06-30T15:34:30.953Z,5.42
2018-06-30T15:36:58.695Z,5.90
2018-06-30T15:39:26.503Z,6.33
2018-06-30T15:41:54.294Z,4.67
2018-06-30T15:44:22.088Z,4.65
2018-06-30T15:46:49.872Z,5.03
2018-06-30T15:49:19.634Z,5.17
2018-06-30T15:51:47.465Z,5.62
2018-06-30T15:57:41.342Z,6.35
2018-06-30T16:03:43.811Z,4.92
2018-06-30T16:06:25.091Z,4.35
2018-06-30T16:08:52.900Z,4.22
2018-06-30T16:11:20.787Z,4.78
2018-06-30T16:13:48.561Z,4.67
2018-06-30T16:16:20.060Z,6.17
2018-06-30T16:18:47.748Z,3.87
2018-06-30T16:21:15.646Z,4.67
2018-06-30T16:23:43.396Z,5.05
2018-06-30T16:26:11.188Z,5.10
2018-06-30T16:28:38.959Z,4.58
2018-06-30T16:31:07.239Z,3.75
2018-06-30T16:33:35.430Z,4.22
2018-06-30T16:36:03.266Z,4.50
2018-06-30T16:38:31.032Z,4.87
2018-06-30T16:41:39.209Z,4.45
2018-06-30T16:44:07.300Z,4.40
2018-06-30T16:46:35.968Z,4.25
2018-06-30T16:49:03.983Z,5.10
2018-06-30T16:51:31.913Z,4.08
2018-06-30T16:53:59.918Z,4.08
2018-06-30T16:56:48.864Z,4.08
2018-06-30T16:59:16.742Z,3.52
2018-06-30T17:01:44.520Z,3.62
2018-06-30T17:04:12.306Z,3.50
2018-06-30T17:06:40.176Z,3.72
2018-06-30T17:09:10.585Z,3.45
2018-06-30T17:11:38.512Z,2.10
2018-06-30T17:14:06.398Z,2.05
2018-06-30T17:16:34.269Z,2.50
2018-06-30T17:19:02.028Z,2.75
2018-06-30T17:21:29.853Z,2.25
2018-06-30T17:23:57.670Z,2.67
2018-06-30T17:26:25.687Z,2.50
2018-06-30T17:28:53.799Z,2.62
2018-06-30T17:31:21.601Z,3.90
2018-06-30T17:36:20.985Z,3.75
2018-06-30T17:38:48.902Z,3.22
2018-06-30T17:41:16.722Z,4.03
2018-06-30T17:43:44.536Z,3.27
2018-06-30T17:46:12.344Z,4.12
2018-06-30T17:48:40.134Z,3.87
2018-06-30T17:51:08.019Z,3.67
2018-06-30T17:53:35.866Z,3.75
2018-06-30T17:56:04.008Z,4.03
2018-06-30T17:58:31.893Z,3.80
2018-06-30T18:00:59.676Z,3.08
2018-06-30T18:03:27.436Z,3.17
2018-06-30T18:05:55.242Z,3.67
2018-06-30T18:08:23.075Z,3.12
2018-06-30T18:10:50.895Z,3.17
2018-06-30T18:13:18.788Z,3.33
2018-06-30T18:15:46.602Z,3.45
2018-06-30T18:18:14.431Z,2.92
2018-06-30T18:20:42.273Z,2.62
2018-06-30T18:23:10.071Z,2.85
2018-06-30T18:25:37.850Z,2.30
2018-06-30T18:28:22.400Z,2.05
2018-06-30T18:30:50.245Z,3.15
2018-06-30T18:33:18.073Z,2.83
2018-06-30T18:35:45.904Z,2.22
2018-06-30T18:38:14.733Z,2.27
2018-06-30T18:40:42.545Z,2.40
2018-06-30T18:43:10.327Z,1.77
2018-06-30T18:45:38.120Z,1.82
2018-06-30T18:48:05.936Z,1.82
2018-06-30T18:50:33.723Z,1.82
2018-06-30T18:53:01.513Z,1.70
2018-06-30T18:58:02.871Z,1.95
2018-06-30T19:00:30.702Z,1.95
2018-06-30T19:02:58.548Z,2.10
2018-06-30T19:05:26.327Z,2.02
2018-06-30T19:07:54.163Z,1.42
2018-06-30T19:10:22.081Z,1.72
2018-06-30T19:12:49.918Z,1.20
2018-06-30T19:15:17.700Z,1.62
2018-06-30T19:17:45.459Z,1.90
2018-06-30T19:20:13.365Z,1.22
2018-06-30T19:22:41.317Z,0.65
2018-06-30T19:25:09.094Z,0.80
2018-06-30T19:27:36.968Z,0.90
2018-06-30T19:30:05.165Z,0.72
2018-06-30T19:32:32.954Z,0.90
2018-06-30T19:38:02.718Z,0.50
2018-06-30T19:40:41.503Z,0.72
2018-06-30T19:43:09.375Z,0.65
2018-06-30T19:45:37.131Z,0.60
2018-06-30T19:48:04.956Z,0.50
2018-06-30T19:50:32.746Z,0.40
2018-06-30T19:53:00.501Z,0.42
2018-06-30T19:55:28.322Z,0.50
2018-06-30T19:57:56.056Z,0.60
2018-06-30T20:00:23.786Z,0.40
2018-06-30T20:02:51.576Z,0.30
2018-06-30T20:05:19.327Z,0.30
2018-06-30T20:07:53.395Z,0.40
2018-06-30T20:10:21.380Z,0.30
2018-06-30T20:12:49.153Z,0.23
2018-06-30T20:15:17.960Z,0.40
2018-06-30T20:18:35.797Z,0.20
2018-06-30T20:23:44.446Z,0.35
2018-06-30T20:26:12.254Z,0.30
2018-06-30T20:28:40.217Z,0.40
2018-06-30T20:31:07.865Z,0.45
2018-06-30T20:33:35.671Z,0.30
2018-06-30T20:36:03.694Z,0.57
2018-06-30T20:38:31.488Z,0.28
2018-06-30T20:40:59.319Z,0.28
2018-06-30T20:43:27.089Z,0.25
2018-06-30T20:46:29.735Z,0.20
2018-06-30T20:48:57.550Z,0.20
2018-06-30T20:51:25.428Z,0.20
2018-06-30T20:53:53.354Z,0.30
2018-06-30T20:56:21.165Z,0.35
2018-06-30T20:58:48.974Z,0.20
2018-06-30T21:01:16.861Z,0.20
2018-06-30T21:03:44.601Z,0.20
2018-06-30T21:06:13.427Z,0.30
2018-06-30T21:08:41.198Z,0.20
2018-06-30T21:11:09.062Z,0.20
2018-06-30T21:13:36.855Z,0.50
2018-06-30T21:16:04.729Z,0.20
2018-06-30T21:18:32.541Z,0.37
2018-06-30T21:21:00.334Z,0.57
2018-06-30T21:23:28.123Z,0.20
2018-06-30T21:25:55.971Z,0.20
2018-06-30T21:28:23.726Z,0.20
2018-06-30T21:30:51.555Z,0.20
2018-06-30T21:33:19.409Z,0.30
2018-06-30T21:35:47.146Z,0.20
2018-06-30T21:38:14.955Z,0.20
2018-06-30T21:40:42.719Z,0.20
2018-06-30T21:43:10.463Z,0.20
2018-06-30T21:45:38.240Z,0.10
2018-06-30T21:48:15.234Z,0.20
2018-06-30T21:50:43.074Z,1.60
2018-06-30T21:53:10.875Z,0.30
2018-06-30T21:55:38.707Z,0.68
2018-06-30T21:58:06.849Z,0.30
2018-06-30T22:00:47.501Z,0.20
2018-06-30T22:03:16.270Z,0.37
2018-06-30T22:05:44.082Z,4.10
2018-06-30T22:08:11.880Z,0.30
2018-06-30T22:10:39.648Z,1.02
2018-06-30T22:13:07.489Z,0.25
2018-06-30T22:15:35.731Z,0.30
2018-06-30T22:18:03.546Z,0.28
2018-06-30T22:20:31.970Z,0.20
2018-06-30T22:22:59.818Z,0.20
2018-06-30T22:25:27.632Z,0.28
2018-06-30T22:27:55.523Z,0.20
2018-06-30T22:30:23.453Z,0.20
2018-06-30T22:32:51.475Z,0.30
2018-06-30T22:35:19.430Z,0.30
2018-06-30T22:37:47.421Z,0.20
2018-06-30T22:40:17.313Z,0.20
2018-06-30T22:42:45.866Z,0.20
2018-06-30T22:45:14.463Z,0.20
2018-06-30T22:47:42.657Z,0.20
2018-06-30T22:50:10.587Z,0.20
2018-06-30T22:52:38.732Z,0.33
2018-06-30T22:55:06.739Z,0.20
2018-06-30T22:57:42.462Z,0.10
2018-06-30T23:03:25.582Z,0.20
2018-06-30T23:05:53.422Z,3.72
2018-06-30T23:08:21.209Z,0.30
2018-06-30T23:10:49.035Z,0.20
2018-06-30T23:13:16.880Z,0.20
2018-06-30T23:15:44.704Z,0.20
2018-06-30T23:18:12.516Z,0.15
2018-06-30T23:20:40.296Z,0.20
2018-06-30T23:23:09.158Z,0.20
2018-06-30T23:25:37.539Z,0.20
2018-06-30T23:28:05.504Z,0.20
2018-06-30T23:34:14.240Z,0.28
2018-06-30T23:36:42.067Z,0.30
2018-06-30T23:39:10.791Z,0.20
2018-06-30T23:41:38.752Z,0.20
2018-06-30T23:44:06.871Z,0.33
2018-06-30T23:46:34.690Z,0.28
2018-06-30T23:49:02.434Z,0.30
2018-06-30T23:51:30.241Z,0.20
2018-06-30T23:53:57.994Z,0.30
2018-06-30T23:56:25.774Z,0.30
2018-06-30T23:58:53.760Z,0.33
